createdAt,value
2023-03-27T00:02:20.231Z,9.25
2023-03-27T00:05:21.955Z,9.05
2023-03-27T00:08:24.678Z,9.32
2023-03-27T00:11:26.499Z,8.85
2023-03-27T00:14:28.506Z,8.00
2023-03-27T00:17:30.199Z,8.35
2023-03-27T00:20:42.437Z,8.65
2023-03-27T00:23:43.980Z,8.55
2023-03-27T00:26:45.485Z,8.00
2023-03-27T00:29:47.055Z,7.53
2023-03-27T00:32:49.359Z,7.65
2023-03-27T00:35:51.233Z,7.53
2023-03-27T00:38:53.112Z,8.00
2023-03-27T00:41:55.502Z,7.93
2023-03-27T00:44:57.393Z,7.65
2023-03-27T00:48:06.653Z,7.50
2023-03-27T00:51:09.083Z,7.20
2023-03-27T00:54:12.574Z,7.70
2023-03-27T00:57:19.171Z,6.82
2023-03-27T01:03:29.413Z,7.22
2023-03-27T01:06:31.777Z,6.45
2023-03-27T01:09:34.264Z,6.93
2023-03-27T01:12:54.027Z,6.63
2023-03-27T01:16:02.474Z,7.03
2023-03-27T01:19:16.610Z,6.10
2023-03-27T01:22:45.994Z,6.72
2023-03-27T01:26:07.197Z,6.15
2023-03-27T01:29:14.927Z,5.80
2023-03-27T01:32:31.602Z,6.43
2023-03-27T01:35:39.143Z,6.65
2023-03-27T01:39:02.738Z,5.95
2023-03-27T01:42:06.241Z,6.05
2023-03-27T01:45:18.437Z,5.47
2023-03-27T01:48:42.611Z,5.70
2023-03-27T01:51:49.986Z,5.50
2023-03-27T01:54:58.284Z,5.60
2023-03-27T01:58:05.097Z,5.15
2023-03-27T02:01:11.056Z,5.40
2023-03-27T02:04:18.302Z,5.32
2023-03-27T02:07:28.172Z,5.20
2023-03-27T02:10:37.074Z,5.28
2023-03-27T02:13:53.139Z,4.88
2023-03-27T02:17:03.587Z,4.75
2023-03-27T02:20:12.823Z,5.47
2023-03-27T02:23:14.551Z,5.13
2023-03-27T02:26:16.413Z,5.07
2023-03-27T02:29:39.231Z,4.85
2023-03-27T02:32:56.713Z,5.55
2023-03-27T02:36:21.023Z,5.15
2023-03-27T02:39:39.508Z,4.82
2023-03-27T02:43:03.970Z,4.75
2023-03-27T02:46:31.105Z,5.00
2023-03-27T02:49:41.770Z,4.28
2023-03-27T02:52:51.151Z,4.72
2023-03-27T02:55:57.172Z,4.30
2023-03-27T02:59:13.137Z,4.45
2023-03-27T03:02:24.689Z,4.03
2023-03-27T03:05:32.512Z,4.50
2023-03-27T03:08:38.178Z,4.00
2023-03-27T03:11:54.336Z,3.92
2023-03-27T03:14:56.594Z,4.28
2023-03-27T03:17:58.104Z,3.50
2023-03-27T03:21:00.024Z,3.83
2023-03-27T03:24:02.846Z,3.88
2023-03-27T03:27:05.705Z,3.85
2023-03-27T03:30:17.536Z,3.72
2023-03-27T03:33:42.385Z,3.72
2023-03-27T03:36:45.082Z,4.05
2023-03-27T03:39:46.963Z,3.67
2023-03-27T03:42:51.764Z,3.60
2023-03-27T03:45:58.361Z,3.55
2023-03-27T03:49:01.061Z,3.80
2023-03-27T03:52:03.374Z,3.47
2023-03-27T03:55:09.815Z,3.80
2023-03-27T03:58:12.119Z,3.50
2023-03-27T04:01:14.629Z,3.42
2023-03-27T04:04:23.151Z,3.63
2023-03-27T04:07:40.974Z,3.67
2023-03-27T04:11:02.657Z,3.60
2023-03-27T04:14:20.900Z,3.42
2023-03-27T04:17:26.482Z,3.15
2023-03-27T04:20:34.603Z,3.00
2023-03-27T04:23:38.307Z,3.17
2023-03-27T04:26:39.912Z,3.10
2023-03-27T04:30:02.240Z,3.03
2023-03-27T04:33:23.058Z,3.20
2023-03-27T04:36:44.953Z,2.95
2023-03-27T04:39:49.754Z,2.92
2023-03-27T04:42:55.847Z,3.33
2023-03-27T04:45:57.599Z,2.78
2023-03-27T04:48:59.542Z,2.92
2023-03-27T04:52:21.339Z,2.45
2023-03-27T04:55:25.727Z,2.72
2023-03-27T04:58:28.338Z,2.50
2023-03-27T05:01:31.432Z,2.50
2023-03-27T05:04:49.074Z,3.00
2023-03-27T05:07:54.101Z,2.38
2023-03-27T05:10:58.854Z,2.53
2023-03-27T05:14:01.707Z,2.30
2023-03-27T05:17:07.617Z,2.63
2023-03-27T05:20:16.973Z,2.42
2023-03-27T05:23:18.781Z,2.33
2023-03-27T05:26:20.783Z,2.70
2023-03-27T05:29:26.727Z,2.20
2023-03-27T05:32:36.602Z,2.30
2023-03-27T05:35:52.568Z,2.30
2023-03-27T05:38:54.556Z,2.30
2023-03-27T05:42:05.554Z,2.35
2023-03-27T05:45:07.473Z,2.25
2023-03-27T05:48:10.451Z,2.00
2023-03-27T05:51:15.894Z,2.13
2023-03-27T05:54:17.501Z,2.20
2023-03-27T05:57:32.936Z,2.05
2023-03-27T06:00:36.438Z,2.38
2023-03-27T06:03:38.651Z,1.90
2023-03-27T06:06:47.106Z,2.10
2023-03-27T06:09:49.181Z,2.15
2023-03-27T06:13:20.431Z,2.15
2023-03-27T06:16:41.519Z,1.83
2023-03-27T06:20:11.338Z,1.90
2023-03-27T06:23:13.312Z,1.90
2023-03-27T06:26:15.772Z,1.73
2023-03-27T06:29:18.194Z,1.92
2023-03-27T06:32:22.580Z,2.10
2023-03-27T06:35:28.948Z,1.98
2023-03-27T06:38:37.954Z,1.65
2023-03-27T06:41:40.085Z,1.80
2023-03-27T06:44:54.911Z,1.80
2023-03-27T06:48:21.488Z,1.77
2023-03-27T06:51:26.967Z,1.45
2023-03-27T06:54:29.261Z,1.98
2023-03-27T06:57:31.019Z,1.85
2023-03-27T07:00:37.369Z,1.70
2023-03-27T07:03:53.430Z,1.52
2023-03-27T07:07:24.740Z,1.73
2023-03-27T07:10:26.651Z,1.63
2023-03-27T07:13:29.803Z,1.55
2023-03-27T07:16:34.515Z,1.70
2023-03-27T07:19:36.151Z,1.45
2023-03-27T07:22:45.146Z,1.60
2023-03-27T07:25:59.848Z,1.67
2023-03-27T07:29:21.576Z,1.50
2023-03-27T07:32:36.739Z,1.70
2023-03-27T07:35:45.167Z,1.70
2023-03-27T07:42:11.825Z,1.42
2023-03-27T07:45:41.145Z,1.60
2023-03-27T07:48:42.663Z,1.48
2023-03-27T07:51:51.292Z,1.30
2023-03-27T07:54:53.051Z,1.58
2023-03-27T07:58:02.264Z,1.40
2023-03-27T08:01:07.799Z,1.73
2023-03-27T08:04:10.890Z,1.45
2023-03-27T08:07:15.027Z,1.70
2023-03-27T08:10:17.806Z,1.50
2023-03-27T08:13:29.588Z,1.40
2023-03-27T08:16:36.977Z,1.40
2023-03-27T08:19:38.591Z,1.40
2023-03-27T08:22:41.347Z,1.50
2023-03-27T08:26:09.456Z,1.38
2023-03-27T08:29:20.467Z,1.50
2023-03-27T08:32:22.821Z,1.30
2023-03-27T08:35:27.097Z,1.33
2023-03-27T08:38:29.228Z,1.40
2023-03-27T08:41:49.891Z,1.70
2023-03-27T08:48:21.861Z,31.13
2023-03-27T08:51:30.472Z,41.33
2023-03-27T08:54:33.902Z,44.00
2023-03-27T08:57:36.217Z,42.20
2023-03-27T09:00:47.520Z,42.35
2023-03-27T09:04:15.242Z,39.70
2023-03-27T09:07:24.534Z,39.00
2023-03-27T09:10:49.449Z,36.92
2023-03-27T09:14:40.370Z,34.83
2023-03-27T09:17:51.730Z,45.25
2023-03-27T09:20:58.505Z,70.28
2023-03-27T09:24:06.232Z,82.97
2023-03-27T09:27:49.312Z,83.93
2023-03-27T09:31:20.942Z,79.68
2023-03-27T09:34:27.488Z,79.47
2023-03-27T09:37:29.608Z,71.93
2023-03-27T09:40:43.741Z,71.97
2023-03-27T09:43:55.615Z,65.35
2023-03-27T09:47:06.806Z,62.58
2023-03-27T09:50:32.578Z,61.10
2023-03-27T09:53:58.143Z,58.65
2023-03-27T09:57:12.594Z,57.08
2023-03-27T10:00:30.768Z,55.67
2023-03-27T10:03:59.797Z,51.10
2023-03-27T10:07:23.548Z,51.22
2023-03-27T10:10:45.777Z,50.17
2023-03-27T10:14:02.135Z,49.92
2023-03-27T10:17:05.128Z,46.13
2023-03-27T10:20:14.093Z,45.70
2023-03-27T10:23:29.004Z,45.05
2023-03-27T10:26:32.184Z,43.97
2023-03-27T10:29:36.489Z,42.88
2023-03-27T10:32:45.075Z,44.33
2023-03-27T10:36:09.542Z,40.85
2023-03-27T10:39:13.935Z,41.05
2023-03-27T10:42:32.933Z,38.95
2023-03-27T10:45:45.714Z,37.78
2023-03-27T10:49:06.514Z,37.35
2023-03-27T10:52:19.473Z,35.50
2023-03-27T10:56:10.644Z,34.00
2023-03-27T10:59:31.159Z,31.63
2023-03-27T11:03:00.270Z,29.67
2023-03-27T11:06:07.747Z,28.10
2023-03-27T11:09:23.225Z,26.92
2023-03-27T11:12:35.310Z,28.42
2023-03-27T11:15:43.626Z,26.40
2023-03-27T11:19:11.021Z,25.45
2023-03-27T11:22:47.999Z,23.73
2023-03-27T11:26:11.003Z,22.38
2023-03-27T11:29:30.135Z,21.80
2023-03-27T11:32:40.733Z,23.45
2023-03-27T11:35:51.902Z,21.38
2023-03-27T11:39:21.214Z,21.02
2023-03-27T11:42:27.821Z,20.90
2023-03-27T11:46:07.984Z,20.10
2023-03-27T11:49:31.142Z,18.63
2023-03-27T11:52:47.789Z,19.77
2023-03-27T11:56:19.429Z,17.63
2023-03-27T11:59:50.068Z,17.25
2023-03-27T12:03:17.095Z,17.17
2023-03-27T12:06:30.554Z,16.55
2023-03-27T12:09:57.019Z,16.60
2023-03-27T12:13:38.643Z,15.57
2023-03-27T12:17:15.849Z,16.38
2023-03-27T12:20:58.775Z,15.85
2023-03-27T12:24:27.588Z,15.18
2023-03-27T12:28:06.425Z,14.60
2023-03-27T12:31:55.692Z,14.30
2023-03-27T12:35:03.497Z,14.57
2023-03-27T12:38:22.939Z,13.98
2023-03-27T12:41:26.005Z,12.93
2023-03-27T12:45:02.913Z,12.68
2023-03-27T12:48:10.543Z,13.15
2023-03-27T12:51:19.822Z,11.93
2023-03-27T12:54:31.307Z,12.05
2023-03-27T12:57:45.099Z,11.73
2023-03-27T13:01:00.932Z,12.57
2023-03-27T13:04:27.482Z,11.50
2023-03-27T13:07:39.136Z,11.63
2023-03-27T13:11:22.070Z,11.15
2023-03-27T13:14:55.763Z,11.20
2023-03-27T13:18:18.528Z,10.82
2023-03-27T13:21:57.454Z,11.02
2023-03-27T13:25:20.462Z,10.85
2023-03-27T13:28:38.087Z,9.73
2023-03-27T13:31:44.526Z,9.27
2023-03-27T13:35:21.373Z,10.25
2023-03-27T13:38:44.862Z,9.95
2023-03-27T13:41:46.938Z,10.25
2023-03-27T13:45:07.417Z,9.30
2023-03-27T13:48:20.927Z,8.98
2023-03-27T13:51:22.470Z,8.77
2023-03-27T13:54:42.205Z,9.27
2023-03-27T13:58:12.361Z,8.60
2023-03-27T14:01:34.155Z,8.60
2023-03-27T14:04:53.146Z,8.50
2023-03-27T14:08:19.564Z,8.13
2023-03-27T14:12:19.979Z,7.72
2023-03-27T14:15:53.683Z,7.32
2023-03-27T14:19:43.593Z,7.72
2023-03-27T14:23:03.496Z,7.72
2023-03-27T14:26:21.615Z,7.78
